Time,TemperatureF,DewpointF,PressureIn,WindDirection,WindDirectionDegrees,WindSpeedMPH,WindSpeedGustMPH,Humidity,HourlyPrecipIn,Conditions,Clouds,dailyrainin,SoftwareType,DateUTC
2013-01-13 00:00:00,45.5,44.4,30.10,SE,144,3.0,4.0,96,0.00,,---,0.00,VWS V14.01,2013-01-13 05:00:00,
2013-01-13 00:01:00,45.6,44.5,30.10,SE,142,4.0,4.0,96,0.00,,---,0.00,VWS V14.01,2013-01-13 05:01:00,
2013-01-13 00:02:00,45.5,44.4,30.10,SE,128,3.0,4.0,96,0.00,,---,0.00,VWS V14.01,2013-01-13 05:02:00,
2013-01-13 00:07:00,45.5,44.4,30.09,ESE,115,4.0,4.0,96,0.00,,---,0.00,VWS V14.01,2013-01-13 05:07:00,
2013-01-13 00:12:00,45.4,44.3,30.09,ESE,123,4.0,4.0,96,0.00,,---,0.00,VWS V14.01,2013-01-13 05:12:00,
2013-01-13 00:17:00,45.3,44.2,30.09,SE,145,3.0,4.0,96,0.00,,---,0.00,VWS V14.01,2013-01-13 05:17:00,
2013-01-13 00:22:00,45.3,44.2,30.09,SE,135,3.0,4.0,96,0.00,,---,0.00,VWS V14.01,2013-01-13 05:22:00,
2013-01-13 00:27:00,45.2,44.1,30.09,ESE,105,4.0,5.0,96,0.00,,---,0.00,VWS V14.01,2013-01-13 05:27:00,
2013-01-13 00:32:00,45.1,44.0,30.09,ESE,118,4.0,5.0,96,0.00,,---,0.00,VWS V14.01,2013-01-13 05:32:00,
2013-01-13 00:37:00,45.0,43.9,30.09,SE,140,3.0,5.0,96,0.00,,---,0.00,VWS V14.01,2013-01-13 05:37:00,
2013-01-13 00:42:00,44.9,43.8,30.09,ESE,120,4.0,5.0,96,0.00,,---,0.00,VWS V14.01,2013-01-13 05:42:00,
2013-01-13 00:47:00,44.8,44.0,30.09,ESE,112,4.0,6.0,97,0.00,,---,0.00,VWS V14.01,2013-01-13 05:47:00,
2013-01-13 00:52:00,44.6,43.8,30.08,East,97,5.0,5.0,97,0.00,,---,0.00,VWS V14.01,2013-01-13 05:52:00,
2013-01-13 00:57:00,44.5,43.7,30.09,East,100,4.0,6.0,97,0.00,,---,0.00,VWS V14.01,2013-01-13 05:57:00,
2013-01-13 01:02:00,44.4,43.6,30.09,ESE,115,4.0,4.0,97,0.00,,---,0.00,VWS V14.01,2013-01-13 06:02:00,
2013-01-13 01:07:00,44.3,43.5,30.08,ESE,108,5.0,5.0,97,0.00,,---,0.00,VWS V14.01,2013-01-13 06:07:00,
2013-01-13 01:13:00,44.1,43.3,30.08,ESE,106,6.0,6.0,97,0.00,,---,0.00,VWS V14.01,2013-01-13 06:13:00,
2013-01-13 01:18:00,43.9,43.1,30.08,East,89,4.0,5.0,97,0.00,,---,0.00,VWS V14.01,2013-01-13 06:18:00,
2013-01-13 01:23:00,43.7,42.9,30.09,SE,136,4.0,5.0,97,0.00,,---,0.00,VWS V14.01,2013-01-13 06:23:00,
2013-01-13 01:28:00,43.4,42.6,30.09,ESE,118,2.0,4.0,97,0.00,,---,0.00,VWS V14.01,2013-01-13 06:28:00,
2013-01-13 01:33:00,43.2,42.4,30.09,ESE,114,3.0,3.0,97,0.00,,---,0.00,VWS V14.01,2013-01-13 06:33:00,
2013-01-13 01:38:00,43.0,42.2,30.09,SE,131,3.0,3.0,97,0.00,,---,0.00,VWS V14.01,2013-01-13 06:38:00,
2013-01-13 01:44:00,42.7,41.9,30.09,SE,136,1.0,2.0,97,0.00,,---,0.00,VWS V14.01,2013-01-13 06:44:00,
2013-01-13 01:49:00,42.5,41.7,30.10,ESE,120,2.0,3.0,97,0.00,,---,0.00,VWS V14.01,2013-01-13 06:49:00,
2013-01-13 01:54:00,42.3,41.5,30.10,ESE,103,3.0,3.0,97,0.00,,---,0.00,VWS V14.01,2013-01-13 06:54:00,
2013-01-13 01:59:00,42.1,41.3,30.10,ESE,117,2.0,3.0,97,0.00,,---,0.00,VWS V14.01,2013-01-13 06:59:00,
2013-01-13 02:04:00,41.9,41.1,30.10,ESE,117,2.0,3.0,97,0.00,,---,0.00,VWS V14.01,2013-01-13 07:04:00,
2013-01-13 02:09:00,41.8,41.0,30.10,ESE,121,1.0,2.0,97,0.00,,---,0.00,VWS V14.01,2013-01-13 07:09:00,
2013-01-13 02:14:00,41.8,41.0,30.10,SE,125,3.0,3.0,97,0.00,,---,0.00,VWS V14.01,2013-01-13 07:14:00,
2013-01-13 02:19:00,41.6,40.8,30.10,East,101,2.0,4.0,97,0.00,,---,0.00,VWS V14.01,2013-01-13 07:19:00,
2013-01-13 02:24:00,41.5,40.7,30.09,East,93,3.0,3.0,97,0.00,,---,0.00,VWS V14.01,2013-01-13 07:24:00,
2013-01-13 02:29:00,41.2,40.4,30.09,ESE,111,4.0,4.0,97,0.00,,---,0.00,VWS V14.01,2013-01-13 07:29:00,
2013-01-13 02:35:00,40.9,40.1,30.09,SSE,147,3.0,3.0,97,0.00,,---,0.00,VWS V14.01,2013-01-13 07:35:00,
2013-01-13 02:40:00,40.8,40.0,30.09,East,97,4.0,4.0,97,0.00,,---,0.00,VWS V14.01,2013-01-13 07:40:00,
2013-01-13 02:45:00,40.7,39.9,30.09,SE,131,3.0,3.0,97,0.00,,---,0.00,VWS V14.01,2013-01-13 07:45:00,
2013-01-13 02:50:00,40.6,39.8,30.08,SE,132,3.0,5.0,97,0.00,,---,0.00,VWS V14.01,2013-01-13 07:50:00,
2013-01-13 02:55:00,40.6,40.1,30.08,SE,127,2.0,5.0,98,0.00,,---,0.00,VWS V14.01,2013-01-13 07:55:00,
2013-01-13 03:00:00,40.6,40.1,30.08,SE,126,3.0,5.0,98,0.00,,---,0.00,VWS V14.01,2013-01-13 08:00:00,
2013-01-13 03:05:00,40.6,40.1,30.08,ESE,119,3.0,4.0,98,0.00,,---,0.00,VWS V14.01,2013-01-13 08:05:00,
2013-01-13 03:10:00,40.6,40.1,30.07,ESE,109,3.0,4.0,98,0.00,,---,0.00,VWS V14.01,2013-01-13 08:10:00,
2013-01-13 03:15:00,40.6,40.1,30.06,SE,124,3.0,4.0,98,0.00,,---,0.00,VWS V14.01,2013-01-13 08:15:00,
2013-01-13 03:20:00,40.7,40.2,30.06,ESE,121,4.0,4.0,98,0.00,,---,0.00,VWS V14.01,2013-01-13 08:20:00,
2013-01-13 03:25:00,40.7,40.2,30.06,ESE,123,1.0,4.0,98,0.00,,---,0.00,VWS V14.01,2013-01-13 08:25:00,
2013-01-13 03:30:00,40.8,40.3,30.06,ESE,111,2.0,3.0,98,0.00,,---,0.00,VWS V14.01,2013-01-13 08:30:00,
2013-01-13 03:35:00,41.0,40.5,30.06,ESE,117,1.0,3.0,98,0.00,,---,0.00,VWS V14.01,2013-01-13 08:35:00,
2013-01-13 03:40:00,41.2,40.7,30.07,ESE,122,2.0,2.0,98,0.00,,---,0.00,VWS V14.01,2013-01-13 08:40:00,
2013-01-13 03:45:00,41.5,41.0,30.06,East,101,2.0,4.0,98,0.00,,---,0.00,VWS V14.01,2013-01-13 08:45:00,
2013-01-13 03:50:00,41.5,41.0,30.05,ESE,115,2.0,3.0,98,0.00,,---,0.00,VWS V14.01,2013-01-13 08:50:00,
2013-01-13 03:55:00,41.4,40.9,30.04,ESE,119,2.0,3.0,98,0.00,,---,0.00,VWS V14.01,2013-01-13 08:55:00,
2013-01-13 04:00:00,41.5,41.0,30.05,ESE,122,2.0,2.0,98,0.00,,---,0.00,VWS V14.01,2013-01-13 09:00:00,
2013-01-13 04:05:00,41.4,40.9,30.05,ESE,110,1.0,2.0,98,0.00,,---,0.00,VWS V14.01,2013-01-13 09:05:00,
2013-01-13 04:10:00,41.5,41.0,30.04,ESE,123,2.0,3.0,98,0.00,,---,0.00,VWS V14.01,2013-01-13 09:10:00,
2013-01-13 04:15:00,41.6,41.1,30.04,ESE,120,3.0,4.0,98,0.00,,---,0.00,VWS V14.01,2013-01-13 09:15:00,
2013-01-13 04:20:00,41.7,41.2,30.04,ESE,116,2.0,4.0,98,0.00,,---,0.00,VWS V14.01,2013-01-13 09:20:00,
2013-01-13 04:25:00,41.6,41.1,30.03,SE,142,2.0,3.0,98,0.00,,---,0.00,VWS V14.01,2013-01-13 09:25:00,
2013-01-13 04:31:00,41.5,41.0,30.03,SE,128,2.0,3.0,98,0.00,,---,0.00,VWS V14.01,2013-01-13 09:31:00,
2013-01-13 04:36:00,41.4,40.9,30.03,SE,128,2.0,3.0,98,0.00,,---,0.00,VWS V14.01,2013-01-13 09:36:00,
2013-01-13 04:41:00,41.4,40.9,30.03,ESE,114,4.0,4.0,98,0.00,,---,0.00,VWS V14.01,2013-01-13 09:41:00,
2013-01-13 04:46:00,41.4,40.9,30.02,ESE,110,6.0,6.0,98,0.00,,---,0.00,VWS V14.01,2013-01-13 09:46:00,
2013-01-13 04:51:00,41.3,40.8,30.02,SE,131,5.0,6.0,98,0.00,,---,0.00,VWS V14.01,2013-01-13 09:51:00,
2013-01-13 04:56:00,41.3,40.8,30.02,ESE,105,4.0,5.0,98,0.00,,---,0.00,VWS V14.01,2013-01-13 09:56:00,
2013-01-13 05:01:00,41.4,40.9,30.02,SE,139,2.0,3.0,98,0.00,,---,0.00,VWS V14.01,2013-01-13 10:01:00,
2013-01-13 05:06:00,41.5,41.0,30.03,ESE,109,3.0,4.0,98,0.00,,---,0.00,VWS V14.01,2013-01-13 10:06:00,
2013-01-13 05:11:00,41.5,41.0,30.02,ESE,115,4.0,5.0,98,0.00,,---,0.00,VWS V14.01,2013-01-13 10:11:00,
2013-01-13 05:16:00,41.5,41.0,30.02,ESE,107,3.0,6.0,98,0.00,,---,0.00,VWS V14.01,2013-01-13 10:16:00,
2013-01-13 05:21:00,41.5,41.0,30.02,ESE,115,4.0,5.0,98,0.00,,---,0.00,VWS V14.01,2013-01-13 10:21:00,
2013-01-13 05:26:00,41.5,41.0,30.02,ESE,117,5.0,8.0,98,0.00,,---,0.00,VWS V14.01,2013-01-13 10:26:00,
2013-01-13 05:31:00,41.5,41.0,30.02,SE,124,5.0,5.0,98,0.00,,---,0.00,VWS V14.01,2013-01-13 10:31:00,
2013-01-13 05:36:00,41.6,41.1,30.02,SE,139,5.0,6.0,98,0.00,,---,0.00,VWS V14.01,2013-01-13 10:36:00,
2013-01-13 05:41:00,41.6,41.1,30.02,SE,127,3.0,4.0,98,0.00,,---,0.00,VWS V14.01,2013-01-13 10:41:00,
2013-01-13 05:46:00,41.6,41.1,30.03,SE,132,3.0,4.0,98,0.00,,---,0.00,VWS V14.01,2013-01-13 10:46:00,
2013-01-13 05:51:00,41.6,41.1,30.03,East,94,3.0,4.0,98,0.00,,---,0.00,VWS V14.01,2013-01-13 10:51:00,
2013-01-13 05:56:00,41.5,41.0,30.03,SE,128,3.0,5.0,98,0.00,,---,0.00,VWS V14.01,2013-01-13 10:56:00,
2013-01-13 06:01:00,41.5,41.0,30.03,ESE,111,3.0,4.0,98,0.00,,---,0.00,VWS V14.01,2013-01-13 11:01:00,
2013-01-13 06:06:00,41.5,41.0,30.03,ESE,115,3.0,4.0,98,0.00,,---,0.00,VWS V14.01,2013-01-13 11:06:00,
2013-01-13 06:11:00,41.5,41.0,30.03,SE,131,5.0,5.0,98,0.00,,---,0.00,VWS V14.01,2013-01-13 11:11:00,
2013-01-13 06:16:00,41.5,41.0,30.03,SE,128,3.0,5.0,98,0.00,,---,0.00,VWS V14.01,2013-01-13 11:16:00,
2013-01-13 06:21:00,41.4,40.9,30.03,ESE,111,3.0,4.0,98,0.00,,---,0.00,VWS V14.01,2013-01-13 11:21:00,
2013-01-13 06:26:00,41.5,41.0,30.02,SE,124,5.0,5.0,98,0.00,,---,0.00,VWS V14.01,2013-01-13 11:26:00,
2013-01-13 06:31:00,41.5,41.0,30.02,ESE,113,3.0,4.0,98,0.00,,---,0.00,VWS V14.01,2013-01-13 11:31:00,
2013-01-13 06:36:00,41.5,41.0,30.02,SE,127,3.0,5.0,98,0.00,,---,0.00,VWS V14.01,2013-01-13 11:36:00,
2013-01-13 06:41:00,41.6,41.1,30.02,ESE,106,5.0,5.0,98,0.00,,---,0.00,VWS V14.01,2013-01-13 11:41:00,
2013-01-13 06:46:00,41.8,41.3,30.03,ESE,110,4.0,5.0,98,0.00,,---,0.00,VWS V14.01,2013-01-13 11:46:00,
2013-01-13 06:51:00,41.8,41.3,30.02,SE,131,3.0,4.0,98,0.00,,---,0.00,VWS V14.01,2013-01-13 11:51:00,
2013-01-13 06:56:00,41.9,41.4,30.02,SE,128,4.0,5.0,98,0.00,,---,0.00,VWS V14.01,2013-01-13 11:56:00,
2013-01-13 07:01:00,41.9,41.4,30.02,ESE,117,3.0,5.0,98,0.00,,---,0.00,VWS V14.01,2013-01-13 12:01:00,
2013-01-13 07:06:00,42.0,41.5,30.02,ESE,118,3.0,5.0,98,0.00,,---,0.00,VWS V14.01,2013-01-13 12:06:00,
2013-01-13 07:11:00,42.0,41.5,30.03,ESE,115,4.0,4.0,98,0.00,,---,0.00,VWS V14.01,2013-01-13 12:11:00,
2013-01-13 07:16:00,42.0,41.5,30.03,SE,128,5.0,6.0,98,0.00,,---,0.00,VWS V14.01,2013-01-13 12:16:00,
2013-01-13 07:21:00,42.0,41.5,30.03,ESE,106,3.0,5.0,98,0.00,,---,0.00,VWS V14.01,2013-01-13 12:21:00,
2013-01-13 07:26:00,42.0,41.5,30.03,SE,127,3.0,6.0,98,0.00,,---,0.00,VWS V14.01,2013-01-13 12:26:00,
2013-01-13 07:31:00,41.9,41.4,30.03,SE,124,3.0,5.0,98,0.00,,---,0.00,VWS V14.01,2013-01-13 12:31:00,
2013-01-13 07:36:00,41.8,41.3,30.03,SE,125,4.0,5.0,98,0.00,,---,0.00,VWS V14.01,2013-01-13 12:36:00,
2013-01-13 07:41:00,41.8,41.3,30.04,SE,124,3.0,5.0,98,0.00,,---,0.00,VWS V14.01,2013-01-13 12:41:00,
2013-01-13 07:46:00,41.8,41.3,30.04,ESE,114,4.0,5.0,98,0.00,,---,0.00,VWS V14.01,2013-01-13 12:46:00,
2013-01-13 07:51:00,41.9,41.4,30.04,ESE,113,4.0,5.0,98,0.00,,---,0.00,VWS V14.01,2013-01-13 12:51:00,
2013-01-13 07:57:00,41.9,41.4,30.04,SE,124,3.0,4.0,98,0.00,,---,0.00,VWS V14.01,2013-01-13 12:57:00,
2013-01-13 08:02:00,41.8,41.3,30.05,ESE,103,3.0,4.0,98,0.00,,---,0.00,VWS V14.01,2013-01-13 13:02:00,
2013-01-13 08:07:00,41.9,41.4,30.05,ESE,107,3.0,4.0,98,0.00,,---,0.00,VWS V14.01,2013-01-13 13:07:00,
2013-01-13 08:12:00,42.0,41.5,30.05,ESE,122,1.0,2.0,98,0.00,,---,0.00,VWS V14.01,2013-01-13 13:12:00,
2013-01-13 08:17:00,42.0,41.5,30.05,ESE,114,2.0,3.0,98,0.00,,---,0.00,VWS V14.01,2013-01-13 13:17:00,
2013-01-13 08:22:00,42.1,41.6,30.05,ESE,118,3.0,4.0,98,0.00,,---,0.00,VWS V14.01,2013-01-13 13:22:00,
2013-01-13 08:27:00,42.2,41.7,30.05,ESE,118,2.0,3.0,98,0.00,,---,0.00,VWS V14.01,2013-01-13 13:27:00,
2013-01-13 08:32:00,42.4,41.9,30.05,ESE,107,2.0,2.0,98,0.00,,---,0.00,VWS V14.01,2013-01-13 13:32:00,
2013-01-13 08:37:00,42.5,42.0,30.05,East,91,2.0,2.0,98,0.00,,---,0.00,VWS V14.01,2013-01-13 13:37:00,
2013-01-13 08:42:00,42.7,42.2,30.06,East,86,1.0,2.0,98,0.00,,---,0.00,VWS V14.01,2013-01-13 13:42:00,
2013-01-13 08:47:00,42.8,42.3,30.08,SSE,150,0.0,1.0,98,0.00,,---,0.00,VWS V14.01,2013-01-13 13:47:00,
2013-01-13 08:52:00,43.1,42.6,30.08,ESE,120,0.0,1.0,98,0.00,,---,0.00,VWS V14.01,2013-01-13 13:52:00,
2013-01-13 08:57:00,43.3,42.8,30.09,ESE,107,0.0,1.0,98,0.00,,---,0.00,VWS V14.01,2013-01-13 13:57:00,
2013-01-13 09:02:00,43.3,42.8,30.08,ESE,122,1.0,2.0,98,0.00,,---,0.00,VWS V14.01,2013-01-13 14:02:00,
2013-01-13 09:07:00,43.5,43.0,30.08,SE,127,2.0,3.0,98,0.00,,---,0.00,VWS V14.01,2013-01-13 14:07:00,
2013-01-13 09:12:00,43.5,43.0,30.08,SE,137,3.0,3.0,98,0.00,,---,0.00,VWS V14.01,2013-01-13 14:12:00,
2013-01-13 09:17:00,43.6,43.1,30.08,SE,128,3.0,3.0,98,0.00,,---,0.00,VWS V14.01,2013-01-13 14:17:00,
2013-01-13 09:22:00,43.7,43.2,30.08,ESE,110,2.0,3.0,98,0.00,,---,0.00,VWS V14.01,2013-01-13 14:22:00,
2013-01-13 09:27:00,43.9,43.4,30.08,ESE,113,3.0,3.0,98,0.00,,---,0.00,VWS V14.01,2013-01-13 14:27:00,
2013-01-13 09:32:00,44.1,43.6,30.08,ESE,123,1.0,3.0,98,0.00,,---,0.00,VWS V14.01,2013-01-13 14:32:00,
2013-01-13 09:37:00,44.4,43.9,30.08,ESE,110,1.0,3.0,98,0.00,,---,0.00,VWS V14.01,2013-01-13 14:37:00,
2013-01-13 09:42:00,44.5,44.0,30.08,East,101,2.0,3.0,98,0.00,,---,0.00,VWS V14.01,2013-01-13 14:42:00,
2013-01-13 09:47:00,44.5,44.0,30.08,ESE,105,2.0,4.0,98,0.00,,---,0.00,VWS V14.01,2013-01-13 14:47:00,
2013-01-13 09:52:00,44.6,44.3,30.08,SE,128,3.0,3.0,99,0.00,,---,0.00,VWS V14.01,2013-01-13 14:52:00,
2013-01-13 09:57:00,44.6,44.1,30.08,ESE,114,2.0,2.0,98,0.00,,---,0.00,VWS V14.01,2013-01-13 14:57:00,
2013-01-13 10:02:00,44.6,44.1,30.08,East,95,2.0,3.0,98,0.00,,---,0.00,VWS V14.01,2013-01-13 15:02:00,
2013-01-13 10:08:00,44.7,44.4,30.08,ESE,107,2.0,3.0,99,0.00,,---,0.00,VWS V14.01,2013-01-13 15:08:00,
2013-01-13 10:13:00,44.8,44.5,30.08,ESE,114,3.0,3.0,99,0.00,,---,0.00,VWS V14.01,2013-01-13 15:13:00,
2013-01-13 10:18:00,44.9,44.4,30.08,ESE,106,3.0,4.0,98,0.00,,---,0.00,VWS V14.01,2013-01-13 15:18:00,
2013-01-13 10:23:00,45.0,44.7,30.08,ESE,120,3.0,3.0,99,0.00,,---,0.00,VWS V14.01,2013-01-13 15:23:00,
2013-01-13 10:28:00,45.1,44.8,30.08,East,95,2.0,4.0,99,0.00,,---,0.00,VWS V14.01,2013-01-13 15:28:00,
2013-01-13 10:33:00,45.2,44.9,30.08,East,85,2.0,3.0,99,0.00,,---,0.00,VWS V14.01,2013-01-13 15:33:00,
2013-01-13 10:38:00,45.4,45.1,30.07,ESE,104,2.0,3.0,99,0.00,,---,0.00,VWS V14.01,2013-01-13 15:38:00,
2013-01-13 10:44:00,45.4,45.1,30.07,ESE,102,2.0,3.0,99,0.00,,---,0.00,VWS V14.01,2013-01-13 15:44:00,
2013-01-13 10:49:00,45.7,45.4,30.07,SE,128,2.0,3.0,99,0.00,,---,0.00,VWS V14.01,2013-01-13 15:49:00,
2013-01-13 10:54:00,45.8,45.5,30.07,ESE,104,2.0,4.0,99,0.00,,---,0.00,VWS V14.01,2013-01-13 15:54:00,
2013-01-13 10:59:00,45.9,45.6,30.07,SE,125,2.0,3.0,99,0.00,,---,0.00,VWS V14.01,2013-01-13 15:59:00,
2013-01-13 11:04:00,46.0,45.7,30.07,ESE,112,4.0,4.0,99,0.00,,---,0.00,VWS V14.01,2013-01-13 16:04:00,
2013-01-13 11:09:00,46.1,45.8,30.06,ESE,122,1.0,3.0,99,0.00,,---,0.00,VWS V14.01,2013-01-13 16:09:00,
2013-01-13 11:14:00,46.1,45.8,30.06,ESE,106,2.0,4.0,99,0.00,,---,0.00,VWS V14.01,2013-01-13 16:14:00,
2013-01-13 11:19:00,46.1,45.8,30.06,SE,129,3.0,3.0,99,0.00,,---,0.00,VWS V14.01,2013-01-13 16:19:00,
2013-01-13 11:24:00,46.1,45.8,30.05,East,92,3.0,3.0,99,0.00,,---,0.00,VWS V14.01,2013-01-13 16:24:00,
2013-01-13 11:29:00,46.1,45.8,30.05,ESE,118,2.0,4.0,99,0.00,,---,0.00,VWS V14.01,2013-01-13 16:29:00,
2013-01-13 11:34:00,46.2,45.9,30.05,ESE,118,2.0,3.0,99,0.00,,---,0.00,VWS V14.01,2013-01-13 16:34:00,
2013-01-13 11:39:00,46.4,46.1,30.05,ESE,117,2.0,2.0,99,0.00,,---,0.00,VWS V14.01,2013-01-13 16:39:00,
2013-01-13 11:44:00,46.6,46.3,30.04,ESE,107,2.0,3.0,99,0.00,,---,0.00,VWS V14.01,2013-01-13 16:44:00,
2013-01-13 11:49:00,46.6,46.3,30.04,ESE,115,3.0,3.0,99,0.00,,---,0.00,VWS V14.01,2013-01-13 16:49:00,
2013-01-13 11:54:00,46.7,46.4,30.04,ESE,110,2.0,3.0,99,0.00,,---,0.00,VWS V14.01,2013-01-13 16:54:00,
2013-01-13 12:00:00,46.9,46.6,30.03,ESE,113,2.0,3.0,99,0.00,,---,0.00,VWS V14.01,2013-01-13 17:00:00,
2013-01-13 12:05:00,47.0,46.7,30.03,SE,143,2.0,3.0,99,0.00,,---,0.00,VWS V14.01,2013-01-13 17:05:00,
2013-01-13 12:10:00,47.1,46.8,30.03,SE,138,1.0,3.0,99,0.00,,---,0.00,VWS V14.01,2013-01-13 17:10:00,
2013-01-13 12:15:00,47.1,46.8,30.02,ESE,107,2.0,3.0,99,0.00,,---,0.00,VWS V14.01,2013-01-13 17:15:00,
2013-01-13 12:20:00,47.3,47.0,30.02,East,94,1.0,3.0,99,0.00,,---,0.00,VWS V14.01,2013-01-13 17:20:00,
2013-01-13 12:25:00,47.3,47.0,30.02,ESE,110,2.0,3.0,99,0.00,,---,0.00,VWS V14.01,2013-01-13 17:25:00,
2013-01-13 12:31:00,47.4,47.1,30.02,SE,127,2.0,3.0,99,0.00,,---,0.00,VWS V14.01,2013-01-13 17:31:00,
2013-01-13 12:36:00,47.6,47.3,30.02,SE,131,3.0,4.0,99,0.00,,---,0.00,VWS V14.01,2013-01-13 17:36:00,
2013-01-13 12:41:00,47.7,47.4,30.02,ESE,119,2.0,3.0,99,0.00,,---,0.00,VWS V14.01,2013-01-13 17:41:00,
2013-01-13 12:46:00,47.8,47.5,30.02,ESE,121,2.0,2.0,99,0.00,,---,0.00,VWS V14.01,2013-01-13 17:46:00,
2013-01-13 12:51:00,47.9,47.6,30.02,SE,139,2.0,3.0,99,0.00,,---,0.00,VWS V14.01,2013-01-13 17:51:00,
2013-01-13 12:56:00,48.1,47.8,30.02,ESE,111,3.0,3.0,99,0.00,,---,0.00,VWS V14.01,2013-01-13 17:56:00,
2013-01-13 13:01:00,48.3,48.0,30.02,SE,127,3.0,4.0,99,0.00,,---,0.00,VWS V14.01,2013-01-13 18:01:00,
2013-01-13 13:06:00,48.2,47.9,30.01,SE,137,3.0,4.0,99,0.00,,---,0.00,VWS V14.01,2013-01-13 18:06:00,
2013-01-13 13:11:00,48.4,48.1,30.01,ESE,117,2.0,2.0,99,0.00,,---,0.00,VWS V14.01,2013-01-13 18:11:00,
2013-01-13 13:17:00,48.4,48.1,30.01,East,98,3.0,4.0,99,0.00,,---,0.00,VWS V14.01,2013-01-13 18:17:00,
2013-01-13 13:22:00,48.4,48.1,30.00,SE,134,2.0,3.0,99,0.00,,---,0.00,VWS V14.01,2013-01-13 18:22:00,
2013-01-13 13:27:00,48.2,47.9,30.00,ESE,114,2.0,4.0,99,0.00,,---,0.00,VWS V14.01,2013-01-13 18:27:00,
2013-01-13 13:32:00,48.1,47.8,30.00,ESE,102,3.0,4.0,99,0.00,,---,0.00,VWS V14.01,2013-01-13 18:32:00,
2013-01-13 13:37:00,48.1,47.8,30.00,SE,125,3.0,4.0,99,0.00,,---,0.00,VWS V14.01,2013-01-13 18:37:00,
2013-01-13 13:42:00,48.1,47.8,30.00,SE,128,2.0,4.0,99,0.00,,---,0.00,VWS V14.01,2013-01-13 18:42:00,
2013-01-13 13:47:00,48.2,47.9,30.00,ESE,112,3.0,4.0,99,0.00,,---,0.00,VWS V14.01,2013-01-13 18:47:00,
2013-01-13 13:52:00,48.3,48.0,30.00,ESE,121,3.0,4.0,99,0.00,,---,0.00,VWS V14.01,2013-01-13 18:52:00,
2013-01-13 13:57:00,48.2,47.9,30.00,ESE,116,4.0,4.0,99,0.00,,---,0.00,VWS V14.01,2013-01-13 18:57:00,
2013-01-13 14:02:00,48.3,48.0,30.00,SE,125,3.0,3.0,99,0.00,,---,0.00,VWS V14.01,2013-01-13 19:02:00,
2013-01-13 14:08:00,48.4,48.1,30.00,SE,136,3.0,4.0,99,0.00,,---,0.00,VWS V14.01,2013-01-13 19:08:00,
2013-01-13 14:13:00,48.4,48.1,29.99,SE,133,3.0,3.0,99,0.00,,---,0.00,VWS V14.01,2013-01-13 19:13:00,
2013-01-13 14:18:00,48.4,48.1,30.00,SE,131,2.0,4.0,99,0.00,,---,0.00,VWS V14.01,2013-01-13 19:18:00,
2013-01-13 14:23:00,48.5,48.2,29.99,SE,131,3.0,4.0,99,0.00,,---,0.00,VWS V14.01,2013-01-13 19:23:00,
2013-01-13 14:28:00,48.5,48.2,29.99,ESE,113,3.0,5.0,99,0.00,,---,0.00,VWS V14.01,2013-01-13 19:28:00,
2013-01-13 14:33:00,48.6,48.3,30.00,ESE,108,3.0,3.0,99,0.00,,---,0.00,VWS V14.01,2013-01-13 19:33:00,
2013-01-13 14:38:00,48.7,48.4,30.00,SE,124,3.0,4.0,99,0.00,,---,0.00,VWS V14.01,2013-01-13 19:38:00,
2013-01-13 14:43:00,48.8,48.5,30.00,ESE,123,1.0,4.0,99,0.00,,---,0.00,VWS V14.01,2013-01-13 19:43:00,
2013-01-13 14:48:00,48.8,48.5,30.00,ESE,108,4.0,4.0,99,0.00,,---,0.00,VWS V14.01,2013-01-13 19:48:00,
2013-01-13 14:53:00,48.9,48.6,30.00,East,101,2.0,3.0,99,0.00,,---,0.00,VWS V14.01,2013-01-13 19:53:00,
2013-01-13 14:58:00,49.0,48.7,30.00,ESE,117,3.0,3.0,99,0.00,,---,0.00,VWS V14.01,2013-01-13 19:58:00,
2013-01-13 15:03:00,49.1,48.8,30.00,ESE,117,4.0,4.0,99,0.00,,---,0.00,VWS V14.01,2013-01-13 20:03:00,
2013-01-13 15:08:00,49.2,48.9,30.00,ESE,116,4.0,4.0,99,0.00,,---,0.00,VWS V14.01,2013-01-13 20:08:00,
2013-01-13 15:14:00,49.3,49.0,30.00,ENE,64,3.0,5.0,99,0.00,,---,0.00,VWS V14.01,2013-01-13 20:14:00,
2013-01-13 15:19:00,49.5,49.2,30.00,ESE,104,2.0,2.0,99,0.00,,---,0.00,VWS V14.01,2013-01-13 20:19:00,
2013-01-13 15:24:00,49.7,49.4,30.01,SE,143,2.0,3.0,99,0.00,,---,0.00,VWS V14.01,2013-01-13 20:24:00,
2013-01-13 15:29:00,49.8,49.5,30.00,ESE,114,3.0,3.0,99,0.00,,---,0.00,VWS V14.01,2013-01-13 20:29:00,
2013-01-13 15:34:00,49.8,49.5,30.00,ESE,107,4.0,4.0,99,0.00,,---,0.00,VWS V14.01,2013-01-13 20:34:00,
2013-01-13 15:39:00,49.7,49.4,30.00,SE,124,3.0,3.0,99,0.00,,---,0.00,VWS V14.01,2013-01-13 20:39:00,
2013-01-13 15:45:00,49.9,49.6,29.99,SE,130,2.0,4.0,99,0.00,,---,0.00,VWS V14.01,2013-01-13 20:45:00,
2013-01-13 15:50:00,49.9,49.6,29.99,ESE,120,3.0,4.0,99,0.00,,---,0.00,VWS V14.01,2013-01-13 20:50:00,
2013-01-13 15:55:00,50.0,49.7,30.00,ESE,118,3.0,3.0,99,0.00,,---,0.00,VWS V14.01,2013-01-13 20:55:00,
2013-01-13 16:00:00,50.1,49.8,30.00,ESE,111,1.0,2.0,99,0.00,,---,0.00,VWS V14.01,2013-01-13 21:00:00,
2013-01-13 16:05:00,50.1,49.8,30.01,SE,135,1.0,3.0,99,0.00,,---,0.00,VWS V14.01,2013-01-13 21:05:00,
2013-01-13 16:10:00,50.2,49.9,30.00,SE,131,2.0,2.0,99,0.00,,---,0.00,VWS V14.01,2013-01-13 21:10:00,
2013-01-13 16:15:00,50.2,49.9,30.00,ESE,111,2.0,3.0,99,0.00,,---,0.00,VWS V14.01,2013-01-13 21:15:00,
2013-01-13 16:20:00,50.2,49.9,30.00,SE,136,2.0,2.0,99,0.00,,---,0.00,VWS V14.01,2013-01-13 21:20:00,
2013-01-13 16:25:00,50.3,50.0,30.00,ESE,108,2.0,3.0,99,0.00,,---,0.00,VWS V14.01,2013-01-13 21:25:00,
2013-01-13 16:30:00,50.3,50.0,30.00,SE,141,2.0,4.0,99,0.00,,---,0.00,VWS V14.01,2013-01-13 21:30:00,
2013-01-13 16:35:00,50.3,50.0,29.99,ESE,114,2.0,3.0,99,0.00,,---,0.00,VWS V14.01,2013-01-13 21:35:00,
2013-01-13 16:40:00,50.3,50.0,30.00,ESE,107,1.0,3.0,99,0.00,,---,0.00,VWS V14.01,2013-01-13 21:40:00,
2013-01-13 16:46:00,50.3,50.0,30.00,ESE,111,1.0,2.0,99,0.00,,---,0.00,VWS V14.01,2013-01-13 21:46:00,
2013-01-13 16:51:00,50.4,50.1,30.01,ESE,120,2.0,2.0,99,0.00,,---,0.00,VWS V14.01,2013-01-13 21:51:00,
2013-01-13 16:56:00,50.5,50.2,30.01,ESE,115,2.0,2.0,99,0.00,,---,0.00,VWS V14.01,2013-01-13 21:56:00,
2013-01-13 17:01:00,50.5,50.2,30.01,ESE,113,2.0,3.0,99,0.00,,---,0.00,VWS V14.01,2013-01-13 22:01:00,
2013-01-13 17:06:00,50.5,50.2,30.01,ESE,105,2.0,2.0,99,0.00,,---,0.00,VWS V14.01,2013-01-13 22:06:00,
2013-01-13 17:11:00,50.6,50.3,30.01,SE,124,3.0,3.0,99,0.00,,---,0.00,VWS V14.01,2013-01-13 22:11:00,
2013-01-13 17:16:00,50.6,50.3,30.01,SE,140,1.0,2.0,99,0.00,,---,0.00,VWS V14.01,2013-01-13 22:16:00,
2013-01-13 17:21:00,50.6,50.3,30.01,ESE,106,1.0,3.0,99,0.00,,---,0.00,VWS V14.01,2013-01-13 22:21:00,
2013-01-13 17:26:00,50.6,50.3,30.01,ESE,113,2.0,3.0,99,0.00,,---,0.00,VWS V14.01,2013-01-13 22:26:00,
2013-01-13 17:31:00,50.6,50.3,30.00,SE,124,1.0,2.0,99,0.00,,---,0.00,VWS V14.01,2013-01-13 22:31:00,
2013-01-13 17:37:00,50.6,50.3,30.01,ESE,117,2.0,2.0,99,0.00,,---,0.00,VWS V14.01,2013-01-13 22:37:00,
2013-01-13 17:42:00,50.8,50.5,30.01,SE,136,3.0,3.0,99,0.00,,---,0.00,VWS V14.01,2013-01-13 22:42:00,
2013-01-13 17:47:00,50.9,50.6,30.00,SE,128,2.0,2.0,99,0.00,,---,0.00,VWS V14.01,2013-01-13 22:47:00,
2013-01-13 17:52:00,51.0,50.7,30.01,ESE,121,3.0,3.0,99,0.00,,---,0.00,VWS V14.01,2013-01-13 22:52:00,
2013-01-13 17:57:00,51.0,50.7,30.00,SE,132,1.0,2.0,99,0.00,,---,0.00,VWS V14.01,2013-01-13 22:57:00,
2013-01-13 18:02:00,51.0,50.7,30.01,ESE,108,2.0,2.0,99,0.00,,---,0.00,VWS V14.01,2013-01-13 23:02:00,
2013-01-13 18:07:00,51.1,50.8,30.00,ESE,108,3.0,3.0,99,0.00,,---,0.00,VWS V14.01,2013-01-13 23:07:00,
2013-01-13 18:12:00,51.1,50.8,30.00,ESE,122,3.0,3.0,99,0.00,,---,0.00,VWS V14.01,2013-01-13 23:12:00,
2013-01-13 18:17:00,51.1,50.8,30.00,ESE,110,2.0,2.0,99,0.00,,---,0.00,VWS V14.01,2013-01-13 23:17:00,
2013-01-13 18:22:00,51.1,50.8,29.99,East,94,4.0,4.0,99,0.00,,---,0.00,VWS V14.01,2013-01-13 23:22:00,
2013-01-13 18:28:00,51.2,50.9,29.99,ESE,117,2.0,2.0,99,0.00,,---,0.00,VWS V14.01,2013-01-13 23:28:00,
2013-01-13 18:33:00,51.1,50.8,29.99,East,101,2.0,2.0,99,0.00,,---,0.00,VWS V14.01,2013-01-13 23:33:00,
2013-01-13 18:38:00,51.1,50.8,29.99,SE,127,3.0,3.0,99,0.00,,---,0.00,VWS V14.01,2013-01-13 23:38:00,
2013-01-13 18:43:00,51.1,50.8,29.99,SE,134,2.0,2.0,99,0.00,,---,0.00,VWS V14.01,2013-01-13 23:43:00,
2013-01-13 18:48:00,51.1,50.8,29.99,ESE,112,2.0,3.0,99,0.00,,---,0.00,VWS V14.01,2013-01-13 23:48:00,
2013-01-13 18:53:00,51.2,50.9,29.99,ESE,110,3.0,3.0,99,0.00,,---,0.00,VWS V14.01,2013-01-13 23:53:00,
2013-01-13 18:58:00,51.2,50.9,29.99,East,101,2.0,4.0,99,0.00,,---,0.00,VWS V14.01,2013-01-13 23:58:00,
2013-01-13 19:03:00,51.2,50.9,29.98,ESE,107,2.0,4.0,99,0.00,,---,0.00,VWS V14.01,2013-01-14 00:03:00,
2013-01-13 19:08:00,51.3,51.0,29.98,SE,129,4.0,4.0,99,0.00,,---,0.00,VWS V14.01,2013-01-14 00:08:00,
2013-01-13 19:13:00,51.4,51.1,29.98,SE,128,3.0,4.0,99,0.00,,---,0.00,VWS V14.01,2013-01-14 00:13:00,
2013-01-13 19:18:00,51.6,51.3,29.98,ESE,117,3.0,4.0,99,0.00,,---,0.00,VWS V14.01,2013-01-14 00:18:00,
2013-01-13 19:23:00,51.6,51.3,29.98,SE,129,2.0,2.0,99,0.00,,---,0.00,VWS V14.01,2013-01-14 00:23:00,
2013-01-13 19:28:00,51.7,51.4,29.98,SE,131,2.0,2.0,99,0.00,,---,0.00,VWS V14.01,2013-01-14 00:28:00,
2013-01-13 19:33:00,51.8,51.5,29.98,ESE,121,2.0,3.0,99,0.00,,---,0.00,VWS V14.01,2013-01-14 00:33:00,
2013-01-13 19:39:00,51.8,51.5,29.98,ESE,114,2.0,2.0,99,0.00,,---,0.00,VWS V14.01,2013-01-14 00:39:00,
2013-01-13 19:44:00,51.8,51.5,29.97,SE,131,1.0,2.0,99,0.00,,---,0.00,VWS V14.01,2013-01-14 00:44:00,
2013-01-13 19:49:00,51.8,51.5,29.97,SE,137,3.0,4.0,99,0.00,,---,0.00,VWS V14.01,2013-01-14 00:49:00,
2013-01-13 19:54:00,51.9,51.6,29.97,SSE,148,2.0,3.0,99,0.00,,---,0.00,VWS V14.01,2013-01-14 00:54:00,
2013-01-13 19:59:00,52.0,51.7,29.97,ESE,102,3.0,3.0,99,0.00,,---,0.00,VWS V14.01,2013-01-14 00:59:00,
2013-01-13 20:04:00,52.0,51.7,29.97,East,82,1.0,3.0,99,0.00,,---,0.00,VWS V14.01,2013-01-14 01:04:00,
2013-01-13 20:09:00,52.1,51.8,29.97,ESE,108,0.0,1.0,99,0.00,,---,0.00,VWS V14.01,2013-01-14 01:09:00,
2013-01-13 20:14:00,52.0,51.7,29.97,NNE,28,0.0,2.0,99,0.00,,---,0.00,VWS V14.01,2013-01-14 01:14:00,
2013-01-13 20:19:00,52.2,51.9,29.97,SE,146,2.0,2.0,99,0.00,,---,0.00,VWS V14.01,2013-01-14 01:19:00,
2013-01-13 20:24:00,52.3,52.0,29.97,SE,136,2.0,2.0,99,0.00,,---,0.00,VWS V14.01,2013-01-14 01:24:00,
2013-01-13 20:29:00,52.3,52.0,29.97,ESE,110,2.0,3.0,99,0.00,,---,0.00,VWS V14.01,2013-01-14 01:29:00,
2013-01-13 20:34:00,52.3,52.0,29.97,ESE,119,2.0,3.0,99,0.00,,---,0.00,VWS V14.01,2013-01-14 01:34:00,
2013-01-13 20:39:00,52.2,51.9,29.97,SE,145,2.0,2.0,99,0.00,,---,0.00,VWS V14.01,2013-01-14 01:39:00,
2013-01-13 20:44:00,52.3,52.0,29.97,ESE,122,1.0,2.0,99,0.00,,---,0.00,VWS V14.01,2013-01-14 01:44:00,
2013-01-13 20:50:00,52.2,51.9,29.97,SSE,148,1.0,2.0,99,0.00,,---,0.00,VWS V14.01,2013-01-14 01:50:00,
2013-01-13 20:55:00,52.2,51.9,29.97,SE,136,2.0,2.0,99,0.00,,---,0.00,VWS V14.01,2013-01-14 01:55:00,
2013-01-13 21:00:00,52.4,52.1,29.97,SE,129,1.0,2.0,99,0.00,,---,0.00,VWS V14.01,2013-01-14 02:00:00,
2013-01-13 21:05:00,52.4,52.1,29.97,SE,128,2.0,3.0,99,0.00,,---,0.00,VWS V14.01,2013-01-14 02:05:00,
2013-01-13 21:10:00,52.3,52.0,29.97,ESE,120,3.0,3.0,99,0.00,,---,0.00,VWS V14.01,2013-01-14 02:10:00,
2013-01-13 21:15:00,52.2,51.9,29.96,ESE,107,2.0,3.0,99,0.00,,---,0.00,VWS V14.01,2013-01-14 02:15:00,
2013-01-13 21:20:00,52.2,51.9,29.96,SE,136,0.0,1.0,99,0.00,,---,0.00,VWS V14.01,2013-01-14 02:20:00,
2013-01-13 21:25:00,52.2,51.9,29.96,SE,139,0.0,2.0,99,0.00,,---,0.00,VWS V14.01,2013-01-14 02:25:00,
2013-01-13 21:30:00,52.3,52.0,29.96,SE,131,1.0,1.0,99,0.00,,---,0.00,VWS V14.01,2013-01-14 02:30:00,
2013-01-13 21:35:00,52.4,52.1,29.96,SE,131,1.0,1.0,99,0.00,,---,0.00,VWS V14.01,2013-01-14 02:35:00,
2013-01-13 21:41:00,52.4,52.1,29.96,ESE,110,1.0,1.0,99,0.00,,---,0.00,VWS V14.01,2013-01-14 02:41:00,
2013-01-13 21:46:00,52.5,52.2,29.95,ESE,121,1.0,1.0,99,0.00,,---,0.00,VWS V14.01,2013-01-14 02:46:00,
2013-01-13 21:51:00,52.4,52.1,29.95,SE,124,1.0,1.0,99,0.00,,---,0.00,VWS V14.01,2013-01-14 02:51:00,
2013-01-13 21:56:00,52.6,52.3,29.96,East,99,2.0,3.0,99,0.00,,---,0.00,VWS V14.01,2013-01-14 02:56:00,
2013-01-13 22:01:00,52.7,52.4,29.96,East,94,2.0,4.0,99,0.00,,---,0.00,VWS V14.01,2013-01-14 03:01:00,
2013-01-13 22:06:00,52.6,52.3,29.96,ESE,114,1.0,3.0,99,0.00,,---,0.00,VWS V14.01,2013-01-14 03:06:00,
2013-01-13 22:11:00,52.5,52.2,29.96,ESE,117,2.0,3.0,99,0.00,,---,0.00,VWS V14.01,2013-01-14 03:11:00,
2013-01-13 22:16:00,52.6,52.3,29.96,ESE,109,2.0,3.0,99,0.00,,---,0.00,VWS V14.01,2013-01-14 03:16:00,
2013-01-13 22:21:00,52.7,52.4,29.97,ESE,114,0.0,2.0,99,0.00,,---,0.00,VWS V14.01,2013-01-14 03:21:00,
2013-01-13 22:26:00,52.8,52.5,29.96,SE,136,1.0,1.0,99,0.00,,---,0.00,VWS V14.01,2013-01-14 03:26:00,
2013-01-13 22:31:00,52.8,52.5,29.96,East,95,1.0,1.0,99,0.00,,---,0.00,VWS V14.01,2013-01-14 03:31:00,
2013-01-13 22:36:00,52.9,52.6,29.96,SE,132,0.0,0.0,99,0.00,,---,0.00,VWS V14.01,2013-01-14 03:36:00,
2013-01-13 22:42:00,52.9,52.6,29.96,ESE,108,2.0,2.0,99,0.00,,---,0.00,VWS V14.01,2013-01-14 03:42:00,
2013-01-13 22:47:00,53.0,52.7,29.96,ESE,114,2.0,2.0,99,0.00,,---,0.00,VWS V14.01,2013-01-14 03:47:00,
2013-01-13 22:52:00,53.1,52.8,29.95,ESE,108,1.0,2.0,99,0.00,,---,0.00,VWS V14.01,2013-01-14 03:52:00,
2013-01-13 22:57:00,53.2,52.9,29.95,ESE,117,1.0,2.0,99,0.00,,---,0.00,VWS V14.01,2013-01-14 03:57:00,
2013-01-13 23:02:00,53.2,52.9,29.95,SE,138,1.0,2.0,99,0.00,,---,0.00,VWS V14.01,2013-01-14 04:02:00,
2013-01-13 23:07:00,53.2,52.9,29.95,ESE,110,2.0,3.0,99,0.00,,---,0.00,VWS V14.01,2013-01-14 04:07:00,
2013-01-13 23:12:00,53.0,52.7,29.95,ESE,112,1.0,2.0,99,0.00,,---,0.00,VWS V14.01,2013-01-14 04:12:00,
2013-01-13 23:17:00,52.8,52.5,29.95,ESE,117,1.0,1.0,99,0.00,,---,0.00,VWS V14.01,2013-01-14 04:17:00,
2013-01-13 23:22:00,52.8,52.5,29.95,ESE,113,1.0,1.0,99,0.00,,---,0.00,VWS V14.01,2013-01-14 04:22:00,
2013-01-13 23:27:00,52.9,52.6,29.94,ESE,122,2.0,2.0,99,0.00,,---,0.00,VWS V14.01,2013-01-14 04:27:00,
2013-01-13 23:32:00,53.3,53.0,29.94,SE,128,2.0,2.0,99,0.00,,---,0.00,VWS V14.01,2013-01-14 04:32:00,
2013-01-13 23:37:00,53.1,52.8,29.94,ESE,110,2.0,2.0,99,0.00,,---,0.00,VWS V14.01,2013-01-14 04:37:00,
2013-01-13 23:43:00,53.2,52.9,29.94,SE,137,0.0,1.0,99,0.00,,---,0.00,VWS V14.01,2013-01-14 04:43:00,
2013-01-13 23:48:00,53.4,53.1,29.94,SE,139,2.0,2.0,99,0.00,,---,0.00,VWS V14.01,2013-01-14 04:48:00,
2013-01-13 23:53:00,53.6,53.3,29.94,SE,128,1.0,3.0,99,0.00,,---,0.00,VWS V14.01,2013-01-14 04:53:00,
2013-01-13 23:58:00,53.7,53.4,29.94,SE,138,2.0,2.0,99,0.00,,---,0.00,VWS V14.01,2013-01-14 04:58:00,